Time;durP1;ratioP1;P1;durP2;ratioP2;P2;SDS_P1;SDS_P2;PMS_P1;PMS_P2;Temp;Humidity;BMP_temperature;BMP_pressure;BME280_temperature;BME280_humidity;BME280_pressure;Samples;Min_cycle;Max_cycle;Signal;HPM_P1;HPM_P2
2022/06/06 00:01:43;;;;;;;9.52;8.32;;;;;;;19.31;64.26;100514.03;5010766;28;20391;-20
2022/06/06 00:04:08;;;;;;;8.43;7.72;;;;;;;19.31;65.20;100513.19;5027906;28;20090;-21
2022/06/06 00:06:33;;;;;;;8.63;7.88;;;;;;;19.33;66.56;100513.97;5010868;28;20084;-21
2022/06/06 00:09:00;;;;;;;8.35;7.65;;;;;;;19.34;67.47;100507.69;5030498;28;20025;-20
2022/06/06 00:11:25;;;;;;;8.10;7.40;;;;;;;19.35;67.80;100514.78;5012472;28;20128;-21
2022/06/06 00:13:52;;;;;;;8.15;7.35;;;;;;;19.38;68.08;100514.63;5032563;28;20100;-19
2022/06/06 00:16:17;;;;;;;7.78;7.05;;;;;;;19.40;68.69;100514.56;5031361;28;20045;-21
2022/06/06 00:18:43;;;;;;;7.43;6.82;;;;;;;19.40;68.98;100517.22;5015962;28;20076;-20
2022/06/06 00:21:11;;;;;;;8.18;7.47;;;;;;;19.39;67.69;100526.16;5035149;28;20025;-20
2022/06/06 00:23:39;;;;;;;7.43;6.82;;;;;;;19.40;69.19;100530.59;5029806;28;20747;-19
2022/06/06 00:26:09;;;;;;;7.32;6.72;;;;;;;19.42;68.39;100528.69;5033164;28;20051;-21
2022/06/06 00:28:52;;;;;;;8.13;7.40;;;;;;;19.39;68.93;100518.16;5033210;28;20025;-20
2022/06/06 00:36:45;;;;;;;7.07;6.47;;;;;;;19.33;68.00;100532.69;5033034;28;20147;-21
2022/06/06 00:39:13;;;;;;;7.28;6.55;;;;;;;19.35;66.41;100528.16;5036038;28;20120;-20
2022/06/06 00:41:40;;;;;;;7.03;6.43;;;;;;;19.34;68.32;100532.59;5035610;28;20022;-21
2022/06/06 00:44:09;;;;;;;6.35;5.80;;;;;;;19.34;66.41;100527.25;5018085;28;20131;-21
2022/06/06 00:46:39;;;;;;;5.82;5.43;;;;;;;19.33;68.72;100530.00;5034077;28;20029;-20
2022/06/06 00:49:05;;;;;;;7.63;6.88;;;;;;;19.33;67.53;100530.88;5029900;28;20060;-21
2022/06/06 00:51:31;;;;;;;6.50;6.00;;;;;;;19.31;67.61;100535.44;5031463;28;20029;-20
2022/06/06 00:53:57;;;;;;;6.15;5.57;;;;;;;19.27;69.46;100536.50;5031034;28;20017;-20
2022/06/06 00:56:39;;;;;;;6.38;5.88;;;;;;;19.26;69.06;100540.13;5039471;28;20440;-20
2022/06/06 00:59:27;;;;;;;5.93;5.53;;;;;;;19.25;68.41;100533.06;5004043;28;20045;-21
2022/06/06 01:01:53;;;;;;;5.72;5.22;;;;;;;19.25;68.33;100545.56;5036015;28;20028;-20
2022/06/06 01:04:20;;;;;;;5.40;5.00;;;;;;;19.21;68.83;100542.19;5033004;28;20599;-19
2022/06/06 01:06:46;;;;;;;6.20;5.03;;;;;;;19.21;68.13;100547.53;5031324;28;20108;-20
2022/06/06 01:09:16;;;;;;;5.53;5.13;;;;;;;19.18;68.33;100543.16;5030060;28;20418;-20
2022/06/06 01:12:06;;;;;;;4.82;4.43;;;;;;;19.16;68.92;100533.50;5030310;28;20028;-20
2022/06/06 01:14:34;;;;;;;5.60;5.18;;;;;;;19.16;67.93;100539.72;5012533;28;20037;-21
2022/06/06 01:17:04;;;;;;;5.30;4.80;;;;;;;19.14;68.26;100538.06;5027726;28;20024;-20
2022/06/06 01:19:54;;;;;;;5.88;4.75;;;;;;;19.12;68.41;100539.94;5034797;28;20032;-20
2022/06/06 01:22:56;;;;;;;4.77;4.37;;;;;;;19.14;67.50;100546.09;5014764;28;20032;-20
2022/06/06 01:25:56;;;;;;;5.00;4.70;;;;;;;19.09;68.76;100546.28;5033932;28;20026;-20
2022/06/06 01:28:42;;;;;;;5.05;4.47;;;;;;;19.08;68.32;100552.56;5031551;28;20686;-21
2022/06/06 01:31:14;;;;;;;4.72;4.43;;;;;;;19.03;68.23;100547.41;5032865;28;20087;-21
2022/06/06 01:33:48;;;;;;;4.90;4.50;;;;;;;19.03;67.86;100544.75;5004249;28;20367;-20
2022/06/06 01:36:13;;;;;;;4.57;4.28;;;;;;;19.06;67.94;100543.72;5014553;28;20025;-21
2022/06/06 01:38:40;;;;;;;4.18;3.78;;;;;;;19.01;67.35;100546.63;5014795;28;20052;-19
2022/06/06 01:41:10;;;;;;;3.75;3.45;;;;;;;19.00;67.37;100552.88;5031566;28;20048;-20
2022/06/06 01:44:06;;;;;;;5.18;4.43;;;;;;;19.00;67.53;100557.38;5012862;28;20045;-20
2022/06/06 01:46:35;;;;;;;4.47;4.07;;;;;;;18.95;67.21;100563.81;5028421;28;20483;-20
2022/06/06 01:49:01;;;;;;;4.30;4.00;;;;;;;18.94;67.14;100561.22;5036075;28;20123;-20
2022/06/06 01:51:28;;;;;;;4.55;4.15;;;;;;;18.92;67.03;100560.41;5038120;28;20277;-20
2022/06/06 01:53:54;;;;;;;4.18;3.88;;;;;;;18.88;66.58;100561.47;5013843;28;20025;-20
2022/06/06 01:56:23;;;;;;;4.20;3.90;;;;;;;18.87;66.68;100559.75;5016730;28;20079;-21
2022/06/06 01:58:50;;;;;;;4.90;4.07;;;;;;;18.86;66.23;100569.56;5033386;28;20542;-20
2022/06/06 02:01:16;;;;;;;3.88;3.58;;;;;;;18.82;65.92;100574.19;5030208;28;20029;-20
2022/06/06 02:03:42;;;;;;;3.83;3.47;;;;;;;18.79;65.02;100569.00;5032048;28;20505;-21
2022/06/06 02:06:07;;;;;;;4.07;3.78;;;;;;;18.80;65.74;100573.38;5036149;28;20021;-20
2022/06/06 02:08:33;;;;;;;4.50;3.25;;;;;;;18.78;65.60;100577.94;5013618;28;20543;-20
2022/06/06 02:10:58;;;;;;;4.22;3.83;;;;;;;18.75;64.46;100577.19;5042149;28;20147;-20
2022/06/06 02:13:25;;;;;;;4.05;3.50;;;;;;;18.74;64.89;100579.00;5032817;28;20112;-20
2022/06/06 02:15:51;;;;;;;3.60;3.30;;;;;;;18.71;64.98;100587.16;5028145;28;20057;-20
2022/06/06 02:18:17;;;;;;;4.45;3.45;;;;;;;18.71;65.08;100592.50;5028123;28;20029;-20
2022/06/06 02:20:42;;;;;;;3.78;3.47;;;;;;;18.68;64.77;100587.31;5027227;28;20083;-20
2022/06/06 02:23:08;;;;;;;3.80;3.53;;;;;;;18.63;64.33;100587.50;5019794;28;20083;-22
2022/06/06 02:25:34;;;;;;;4.70;3.75;;;;;;;18.61;65.26;100580.50;5027329;28;20080;-21
2022/06/06 02:28:01;;;;;;;4.22;3.25;;;;;;;18.57;65.27;100588.63;5029310;28;20025;-21
2022/06/06 02:30:30;;;;;;;3.35;3.15;;;;;;;18.57;64.89;100587.75;5028447;28;20462;-21
2022/06/06 02:32:55;;;;;;;4.03;3.72;;;;;;;18.55;64.62;100586.97;5010974;28;21049;-22
2022/06/06 02:35:23;;;;;;;3.42;3.22;;;;;;;18.51;64.73;100590.72;5035744;28;20079;-21
2022/06/06 02:37:49;;;;;;;3.53;3.05;;;;;;;18.48;64.63;100594.41;5013115;28;20120;-21
2022/06/06 02:40:18;;;;;;;3.67;3.42;;;;;;;18.45;64.31;100607.88;5031107;28;20037;-21
2022/06/06 02:42:44;;;;;;;3.47;3.17;;;;;;;18.43;64.40;100615.94;5031823;28;20025;-21
2022/06/06 02:45:10;;;;;;;3.47;3.15;;;;;;;18.40;64.55;100612.53;5011346;28;20031;-21
2022/06/06 02:47:36;;;;;;;3.53;3.22;;;;;;;18.39;64.50;100610.78;5033861;28;20022;-21
2022/06/06 02:50:04;;;;;;;3.22;3.03;;;;;;;18.33;63.88;100618.16;5031588;28;20553;-21
2022/06/06 02:52:29;;;;;;;3.40;3.20;;;;;;;18.28;64.81;100620.13;5029339;28;20049;-21
2022/06/06 02:54:54;;;;;;;3.13;2.92;;;;;;;18.26;64.17;100619.34;5025038;28;20068;-21
2022/06/06 02:57:20;;;;;;;3.97;3.67;;;;;;;18.18;64.62;100629.47;5016900;28;20040;-21
2022/06/06 02:59:48;;;;;;;3.40;3.20;;;;;;;18.14;64.30;100630.53;5019464;28;20108;-20
2022/06/06 03:02:13;;;;;;;3.75;3.45;;;;;;;18.06;64.72;100622.81;5033258;28;20462;-21
2022/06/06 03:04:40;;;;;;;3.75;3.38;;;;;;;18.00;64.85;100623.06;5015808;28;20116;-21
2022/06/06 03:07:43;;;;;;;3.58;3.28;;;;;;;18.01;65.86;100624.81;5034025;28;20030;-21
2022/06/06 03:10:33;;;;;;;4.03;3.63;;;;;;;17.97;65.58;100636.53;5033034;28;20028;-21
2022/06/06 03:13:20;;;;;;;3.78;3.47;;;;;;;17.93;65.51;100633.09;5018958;28;20036;-20
2022/06/06 03:22:18;;;;;;;3.80;3.47;;;;;;;17.86;64.73;100642.28;5015581;28;20037;-21
2022/06/06 03:25:03;;;;;;;3.42;3.13;;;;;;;17.83;64.99;100633.50;5034098;28;20025;-20
2022/06/06 03:27:40;;;;;;;3.30;3.08;;;;;;;17.79;64.76;100637.22;5033583;28;20660;-20
2022/06/06 03:30:29;;;;;;;3.35;3.05;;;;;;;17.79;64.76;100639.88;5033802;28;20064;-20
2022/06/06 03:33:32;;;;;;;3.53;3.33;;;;;;;17.73;64.47;100641.91;5021654;28;20029;-20
2022/06/06 03:36:13;;;;;;;3.55;3.25;;;;;;;17.68;64.70;100640.28;4996674;28;20546;-19
2022/06/06 03:38:44;;;;;;;2.90;2.70;;;;;;;17.66;64.48;100638.63;5031122;28;20112;-20
2022/06/06 03:41:25;;;;;;;2.88;2.67;;;;;;;17.63;64.47;100644.06;5016542;28;20033;-19
2022/06/06 03:44:01;;;;;;;3.40;3.10;;;;;;;17.60;64.42;100652.22;5032801;28;20032;-19
2022/06/06 03:46:50;;;;;;;3.25;3.05;;;;;;;17.59;64.67;100656.66;5030819;28;20028;-20
2022/06/06 03:49:39;;;;;;;3.13;2.92;;;;;;;17.54;64.80;100656.84;5017768;28;20373;-21
2022/06/06 03:52:18;;;;;;;3.13;2.92;;;;;;;17.52;64.67;100666.72;5030356;28;20140;-20
2022/06/06 03:54:52;;;;;;;3.40;3.10;;;;;;;17.49;64.64;100661.50;5031973;28;20025;-21
2022/06/06 03:57:21;;;;;;;3.22;2.92;;;;;;;17.46;64.61;100666.06;5033497;28;20402;-20
2022/06/06 03:59:54;;;;;;;3.25;2.90;;;;;;;17.41;64.74;100671.59;5019408;28;20025;-20
2022/06/06 04:02:25;;;;;;;3.00;2.80;;;;;;;17.38;64.76;100677.03;5018196;28;20132;-21
2022/06/06 04:04:52;;;;;;;3.25;2.90;;;;;;;17.38;64.70;100669.91;5012021;28;20040;-20
2022/06/06 04:07:17;;;;;;;2.70;2.50;;;;;;;17.37;64.69;100683.28;5019574;28;20029;-19
2022/06/06 04:09:43;;;;;;;3.08;2.72;;;;;;;17.33;64.64;100674.53;5039274;28;20391;-20
2022/06/06 04:12:41;;;;;;;3.25;3.05;;;;;;;17.33;64.58;100673.69;5032000;28;20067;-20
2022/06/06 04:15:31;;;;;;;3.35;3.05;;;;;;;17.28;64.45;100676.50;5032148;28;20475;-20
2022/06/06 04:18:00;;;;;;;3.35;3.05;;;;;;;17.25;64.41;100676.63;5018011;28;20017;-20
2022/06/06 04:20:34;;;;;;;3.30;3.10;;;;;;;17.25;64.48;100682.81;5034706;28;20434;-20
2022/06/06 04:23:24;;;;;;;2.92;2.72;;;;;;;17.22;64.68;100682.94;5015232;28;20017;-20
2022/06/06 04:26:19;;;;;;;2.58;2.42;;;;;;;17.22;64.57;100685.59;5014587;28;20044;-20
2022/06/06 04:29:04;;;;;;;2.55;2.40;;;;;;;17.22;64.81;100687.38;5025081;28;20025;-20
2022/06/06 04:31:51;;;;;;;3.58;3.28;;;;;;;17.21;64.64;100697.19;5031078;28;20037;-19
2022/06/06 04:34:21;;;;;;;3.10;2.90;;;;;;;17.22;64.54;100701.59;5030515;28;20395;-20
2022/06/06 04:36:58;;;;;;;3.10;2.77;;;;;;;17.26;65.02;100699.66;5016569;28;20025;-20
2022/06/06 04:39:50;;;;;;;3.60;2.83;;;;;;;17.29;65.55;100708.44;5010968;28;20143;-20
2022/06/06 04:42:49;;;;;;;4.40;3.10;;;;;;;17.32;65.95;100707.44;5028951;28;20029;-19
2022/06/06 04:45:17;;;;;;;6.13;2.90;;;;;;;17.34;66.87;100694.06;5028500;28;20037;-20
2022/06/06 04:47:46;;;;;;;2.80;2.60;;;;;;;17.37;67.25;100704.63;5016729;28;20448;-21
2022/06/06 04:50:17;;;;;;;3.55;3.00;;;;;;;17.40;67.66;100704.47;5016964;28;20530;-20
2022/06/06 04:52:48;;;;;;;3.58;3.28;;;;;;;17.43;67.25;100696.38;5012732;28;20029;-21
2022/06/06 04:55:14;;;;;;;3.17;2.97;;;;;;;17.51;67.72;100699.63;5032385;28;20026;-21
2022/06/06 04:58:01;;;;;;;3.33;3.10;;;;;;;17.56;68.16;100705.66;5015804;28;20029;-21
2022/06/06 05:00:26;;;;;;;3.10;2.90;;;;;;;17.59;69.17;100703.78;5026887;28;20364;-20
2022/06/06 05:02:52;;;;;;;3.10;2.90;;;;;;;17.63;69.04;100706.28;5037199;28;20032;-20
2022/06/06 05:05:17;;;;;;;3.20;2.70;;;;;;;17.72;68.69;100714.84;5037801;28;20029;-20
2022/06/06 05:08:06;;;;;;;3.00;2.80;;;;;;;17.76;68.81;100719.13;5037444;28;20013;-20
2022/06/06 05:10:50;;;;;;;3.03;2.78;;;;;;;17.83;69.32;100718.84;5034287;28;20108;-20
2022/06/06 05:13:26;;;;;;;3.38;3.08;;;;;;;17.91;68.76;100715.03;5028226;28;20121;-21
2022/06/06 05:16:20;;;;;;;2.85;2.65;;;;;;;17.97;68.97;100720.09;5030337;28;20042;-19
2022/06/06 05:18:51;;;;;;;3.15;2.90;;;;;;;18.04;69.18;100721.59;5019659;28;20029;-20
2022/06/06 05:21:26;;;;;;;;;;;;;;;18.10;69.36;100728.53;5031115;28;20025;-20
2022/06/06 05:24:11;;;;;;;3.38;2.88;;;;;;;18.17;69.07;100724.69;5030166;28;19963;-20
2022/06/06 05:27:17;;;;;;;3.03;2.83;;;;;;;18.27;69.36;100711.81;5031755;28;20029;-20
2022/06/06 05:30:04;;;;;;;3.08;2.88;;;;;;;18.32;68.60;100714.31;4954477;28;20130;-20
2022/06/06 05:33:05;;;;;;;3.13;2.83;;;;;;;18.40;68.82;100722.00;5027692;28;20040;-20
2022/06/06 05:35:45;;;;;;;2.80;2.60;;;;;;;18.49;68.77;100724.31;5031360;28;20040;-20
2022/06/06 05:38:42;;;;;;;3.50;3.20;;;;;;;18.55;68.58;100718.72;5032647;28;20653;-19
2022/06/06 05:41:25;;;;;;;2.63;2.53;;;;;;;18.68;68.57;100715.50;5019620;28;20029;-21
2022/06/06 05:43:58;;;;;;;3.17;2.92;;;;;;;18.76;68.51;100718.72;5013849;28;20537;-21
2022/06/06 05:46:40;;;;;;;2.42;2.22;;;;;;;18.77;68.40;100715.09;5007656;28;20021;-21
2022/06/06 05:49:31;;;;;;;3.08;2.88;;;;;;;18.88;68.49;100725.34;5011856;28;20364;-21
2022/06/06 05:52:12;;;;;;;3.15;2.95;;;;;;;18.99;68.28;100735.56;5035869;28;20116;-20
2022/06/06 05:54:51;;;;;;;2.80;2.47;;;;;;;19.03;68.13;100726.47;5013901;28;20033;-20
2022/06/06 05:57:51;;;;;;;3.60;2.78;;;;;;;19.09;68.25;100733.38;5034055;28;20105;-21
2022/06/06 06:00:23;;;;;;;2.85;2.65;;;;;;;19.22;68.16;100731.91;5013489;28;20029;-20
2022/06/06 06:02:54;;;;;;;2.53;2.35;;;;;;;19.29;67.92;100737.84;5011684;28;20507;-20
2022/06/06 06:05:22;;;;;;;2.70;2.50;;;;;;;19.35;67.96;100731.38;5030399;28;20100;-21
2022/06/06 06:08:09;;;;;;;2.83;2.63;;;;;;;19.46;67.55;100738.88;5026123;28;20029;-20
2022/06/06 06:10:50;;;;;;;3.10;2.78;;;;;;;19.53;67.83;100740.34;5014437;28;20029;-20
2022/06/06 06:13:22;;;;;;;2.45;2.28;;;;;;;19.62;67.55;100741.72;5026600;28;20124;-21
2022/06/06 06:15:48;;;;;;;2.83;2.63;;;;;;;19.70;67.58;100739.56;5017263;28;20029;-21
2022/06/06 06:18:42;;;;;;;2.60;2.40;;;;;;;19.73;67.07;100731.41;5013078;28;20025;-21
2022/06/06 06:21:12;;;;;;;2.80;2.60;;;;;;;19.85;67.39;100735.28;5028106;28;20045;-21
2022/06/06 06:23:40;;;;;;;3.72;3.05;;;;;;;19.99;67.07;100731.09;5027232;28;20033;-21
2022/06/06 06:26:06;;;;;;;4.03;2.95;;;;;;;20.09;66.92;100742.25;5005086;28;20489;-19
2022/06/06 06:28:36;;;;;;;2.90;2.70;;;;;;;20.19;66.96;100743.56;5029023;28;20463;-20
2022/06/06 06:31:26;;;;;;;3.17;2.80;;;;;;;20.28;66.75;100736.91;5008111;28;20088;-20
2022/06/06 06:34:14;;;;;;;2.83;2.63;;;;;;;20.37;66.57;100744.47;5013497;28;20076;-20
2022/06/06 06:36:53;;;;;;;3.95;2.70;;;;;;;20.45;66.45;100743.22;5012704;28;20049;-21
2022/06/06 06:39:40;;;;;;;2.88;2.67;;;;;;;20.55;66.05;100740.94;5014585;28;20049;-20
2022/06/06 06:42:19;;;;;;;3.50;2.63;;;;;;;20.60;66.13;100747.81;5033540;28;20409;-21
2022/06/06 06:45:15;;;;;;;2.80;2.60;;;;;;;20.70;65.59;100731.25;5012077;28;20017;-20
2022/06/06 06:47:43;;;;;;;2.25;2.15;;;;;;;20.80;65.74;100743.25;5028456;28;20100;-20
2022/06/06 06:50:20;;;;;;;3.03;2.80;;;;;;;20.92;65.39;100740.91;4997801;28;20037;-20
2022/06/06 06:52:54;;;;;;;3.28;2.60;;;;;;;20.93;65.44;100738.16;5028602;28;20025;-21
2022/06/06 06:55:38;;;;;;;3.97;2.47;;;;;;;21.05;64.98;100746.50;5028683;28;20495;-21
2022/06/06 06:58:12;;;;;;;2.67;2.47;;;;;;;21.15;65.08;100751.28;5029151;28;20033;-21
2022/06/06 07:00:50;;;;;;;4.97;2.83;;;;;;;21.23;64.77;100750.03;5025966;28;20048;-21
2022/06/06 07:09:48;;;;;;;;;;;;;;;21.55;64.21;100752.81;5004221;28;20557;-21
2022/06/06 07:12:35;;;;;;;3.58;3.28;;;;;;;21.58;64.42;100741.91;5026047;28;19917;-20
2022/06/06 07:15:16;;;;;;;2.90;2.70;;;;;;;21.64;63.42;100732.66;5025333;28;21918;-21
2022/06/06 07:17:45;;;;;;;3.50;3.20;;;;;;;21.72;63.01;100737.59;4988388;28;20036;-22
2022/06/06 07:20:13;;;;;;;3.10;2.80;;;;;;;21.74;63.46;100735.72;5009989;28;20033;-21
2022/06/06 07:22:59;;;;;;;3.55;3.22;;;;;;;21.73;63.26;100736.63;5013420;28;20491;-21
2022/06/06 07:25:33;;;;;;;2.88;2.67;;;;;;;21.77;63.04;100738.22;5036092;28;20036;-21
2022/06/06 07:27:59;;;;;;;3.30;3.10;;;;;;;21.87;62.92;100733.22;5034145;28;20018;-21
2022/06/06 07:30:48;;;;;;;3.35;3.10;;;;;;;21.95;62.79;100733.66;5031138;28;20033;-21
2022/06/06 07:33:31;;;;;;;3.58;2.90;;;;;;;21.94;63.17;100723.84;5033854;28;20086;-21
2022/06/06 07:36:27;;;;;;;3.40;3.10;;;;;;;22.02;62.71;100720.75;5033164;28;20029;-20
2022/06/06 07:39:15;;;;;;;3.38;3.00;;;;;;;21.96;62.86;100719.28;5034400;28;20046;-21
2022/06/06 07:41:53;;;;;;;3.47;3.17;;;;;;;22.04;62.58;100724.22;5017611;28;20306;-22
2022/06/06 07:44:57;;;;;;;3.53;3.22;;;;;;;22.09;62.55;100724.81;5031970;28;20394;-21
2022/06/06 07:47:40;;;;;;;3.70;3.40;;;;;;;22.24;62.40;100725.75;5032466;28;20033;-21
2022/06/06 07:50:25;;;;;;;4.13;3.83;;;;;;;22.40;61.79;100723.03;5029154;28;20136;-20
2022/06/06 07:53:04;;;;;;;3.78;3.38;;;;;;;22.47;61.24;100722.69;5012078;28;20280;-20
2022/06/06 07:55:41;;;;;;;4.43;4.03;;;;;;;22.50;61.69;100725.19;5016452;28;20041;-21
2022/06/06 07:58:15;;;;;;;3.90;3.30;;;;;;;22.53;61.64;100720.50;5031455;28;20036;-20
2022/06/06 08:00:41;;;;;;;3.55;3.28;;;;;;;22.62;60.31;100724.50;5016856;28;20039;-21
2022/06/06 08:03:29;;;;;;;4.20;3.80;;;;;;;22.65;60.28;100727.03;4991642;28;20421;-21
2022/06/06 08:06:20;;;;;;;3.90;3.17;;;;;;;22.69;60.25;100727.69;5031207;28;20549;-20
2022/06/06 08:09:07;;;;;;;3.35;3.15;;;;;;;22.90;60.10;100720.16;5037027;28;20031;-21
2022/06/06 08:12:05;;;;;;;3.40;3.13;;;;;;;22.90;60.33;100721.97;5037938;28;20024;-20
2022/06/06 08:14:43;;;;;;;4.20;3.78;;;;;;;22.88;59.69;100719.38;5008406;28;20462;-21
2022/06/06 08:17:27;;;;;;;3.15;2.95;;;;;;;22.92;59.13;100712.00;5015846;28;20384;-21
2022/06/06 08:20:19;;;;;;;4.82;3.65;;;;;;;22.97;59.27;100711.72;5010916;28;20021;-21
2022/06/06 08:22:45;;;;;;;3.50;3.03;;;;;;;23.04;59.03;100703.16;5008120;28;20029;-22
2022/06/06 08:25:15;;;;;;;4.25;3.33;;;;;;;23.05;58.73;100709.41;5031493;28;20029;-21
2022/06/06 08:27:45;;;;;;;3.80;3.05;;;;;;;23.14;58.71;100705.31;5018851;28;20028;-21
2022/06/06 08:30:12;;;;;;;3.67;3.30;;;;;;;23.17;58.46;100711.34;5003485;28;20064;-21
2022/06/06 08:32:38;;;;;;;3.28;3.08;;;;;;;23.27;58.02;100705.41;5032014;28;20033;-21
2022/06/06 08:35:04;;;;;;;3.97;2.75;;;;;;;23.39;57.38;100706.47;5033155;28;20079;-21
2022/06/06 08:37:47;;;;;;;3.90;3.33;;;;;;;23.47;57.80;100692.56;5029388;28;20026;-21
2022/06/06 08:40:31;;;;;;;3.22;2.92;;;;;;;23.57;56.84;100710.69;5031455;28;20028;-21
2022/06/06 08:43:17;;;;;;;3.00;2.80;;;;;;;23.69;56.94;100703.69;5033181;28;20471;-21
2022/06/06 08:46:21;;;;;;;4.57;3.30;;;;;;;23.83;55.94;100718.06;5014140;28;20519;-21
2022/06/06 08:50:44;;;;;;;3.72;2.72;;;;;;;23.94;54.85;100712.00;5033561;28;20013;-21
2022/06/06 08:52:15;;;;;;;3.00;2.75;;;;;;;24.00;55.24;100710.72;5035159;28;20438;-21
2022/06/06 08:55:16;;;;;;;2.65;2.45;;;;;;;24.17;55.09;100712.34;4993958;28;20022;-21
2022/06/06 08:58:10;;;;;;;3.95;2.80;;;;;;;24.25;55.30;100719.91;5029307;28;20399;-21
2022/06/06 09:00:44;;;;;;;3.53;2.97;;;;;;;24.29;54.80;100722.28;5032719;28;20051;-21
2022/06/06 09:03:47;;;;;;;3.13;2.83;;;;;;;24.37;55.23;100729.84;5027075;28;20087;-21
2022/06/06 09:06:40;;;;;;;3.95;2.80;;;;;;;24.56;54.05;100712.44;5023638;28;20391;-21
2022/06/06 09:09:14;;;;;;;2.80;2.60;;;;;;;24.64;53.56;100731.66;5015388;28;20052;-21
2022/06/06 09:12:05;;;;;;;2.97;2.75;;;;;;;24.67;53.58;100719.81;5012760;28;20040;-21
2022/06/06 09:15:12;;;;;;;2.92;2.67;;;;;;;24.47;52.05;100716.63;5025681;28;20018;-21
2022/06/06 09:18:08;;;;;;;3.28;2.97;;;;;;;24.43;51.83;100713.28;5038696;28;20025;-21
2022/06/06 09:20:47;;;;;;;2.72;2.53;;;;;;;24.31;49.26;100714.13;5031482;28;20044;-22
2022/06/06 09:23:50;;;;;;;3.42;2.50;;;;;;;24.52;49.45;100710.94;5031203;28;20534;-22
2022/06/06 09:26:25;;;;;;;3.05;2.72;;;;;;;24.39;49.40;100703.69;5034320;28;20048;-22
2022/06/06 09:29:29;;;;;;;3.25;2.90;;;;;;;24.17;50.33;100709.66;5000524;28;20052;-22
2022/06/06 09:32:08;;;;;;;3.78;2.78;;;;;;;24.39;51.45;100722.53;5001436;28;20114;-22
2022/06/06 09:34:50;;;;;;;3.00;2.67;;;;;;;24.60;49.63;100716.66;5015853;28;20025;-22
2022/06/06 09:37:37;;;;;;;2.70;2.50;;;;;;;24.77;48.46;100715.50;5026479;28;20099;-22
2022/06/06 09:40:30;;;;;;;3.40;3.10;;;;;;;24.94;49.83;100706.28;5014823;28;20030;-22
2022/06/06 09:43:05;;;;;;;2.72;2.53;;;;;;;25.08;48.88;100696.38;5029695;28;20521;-22
2022/06/06 09:46:07;;;;;;;3.35;2.50;;;;;;;24.95;49.91;100699.94;5028956;28;20079;-22
2022/06/06 09:48:57;;;;;;;3.72;2.78;;;;;;;25.26;49.34;100704.97;5015139;28;20017;-22
2022/06/06 09:52:04;;;;;;;2.58;2.38;;;;;;;25.48;48.84;100700.75;5015434;28;20021;-22
2022/06/06 10:01:04;;;;;;;3.38;2.95;;;;;;;24.96;47.99;100715.13;4970239;28;20471;-22
2022/06/06 10:03:52;;;;;;;3.00;2.28;;;;;;;24.98;47.79;100709.63;5037407;28;20030;-22
2022/06/06 10:06:55;;;;;;;4.40;2.70;;;;;;;24.89;47.88;100713.84;5032945;28;20027;-22
2022/06/06 10:09:35;;;;;;;2.40;2.22;;;;;;;24.84;47.72;100711.41;5029476;28;20017;-22
2022/06/06 10:12:20;;;;;;;4.05;2.83;;;;;;;25.04;48.86;100713.75;5036117;28;20040;-22
2022/06/06 10:15:02;;;;;;;3.60;2.58;;;;;;;25.23;48.88;100708.75;5027861;28;20064;-22
2022/06/06 10:17:39;;;;;;;2.53;2.33;;;;;;;25.15;48.21;100703.06;5011862;28;20021;-22
2022/06/06 10:20:37;;;;;;;2.60;2.40;;;;;;;25.18;47.78;100712.75;5031017;28;20091;-21
2022/06/06 10:23:15;;;;;;;2.97;2.72;;;;;;;25.04;47.50;100716.44;5024951;28;20029;-22
2022/06/06 10:26:04;;;;;;;2.38;2.03;;;;;;;24.88;48.14;100695.94;5030767;28;20024;-22
2022/06/06 10:29:19;;;;;;;2.45;2.25;;;;;;;25.15;48.13;100713.84;5008194;28;20040;-22
2022/06/06 10:31:50;;;;;;;2.53;2.33;;;;;;;25.48;48.34;100698.91;5031104;28;20067;-22
2022/06/06 10:34:23;;;;;;;4.53;2.40;;;;;;;25.66;48.02;100695.88;5032455;28;20510;-22
2022/06/06 10:37:24;;;;;;;2.10;2.00;;;;;;;25.81;47.72;100701.97;5012104;28;20048;-22
2022/06/06 10:39:58;;;;;;;2.15;1.95;;;;;;;25.98;47.26;100708.84;5019052;28;20043;-24
2022/06/06 10:42:36;;;;;;;2.60;2.00;;;;;;;26.06;47.45;100702.88;5026943;28;20032;-22
2022/06/06 10:45:27;;;;;;;2.17;2.08;;;;;;;26.16;46.00;100696.75;5008548;28;20029;-22
2022/06/06 10:48:11;;;;;;;2.08;1.88;;;;;;;26.11;46.11;100699.84;5026762;28;20029;-22
2022/06/06 10:54:23;;;;;;;4.97;2.20;;;;;;;26.23;46.14;100711.53;5030297;28;20092;-22
2022/06/06 10:57:09;;;;;;;2.40;1.92;;;;;;;26.31;45.65;100700.19;5032671;28;20021;-22
2022/06/06 10:59:46;;;;;;;2.75;2.00;;;;;;;26.34;45.62;100694.56;5026086;28;20498;-22
2022/06/06 11:02:26;;;;;;;2.08;1.90;;;;;;;26.36;45.50;100700.69;5028307;28;20041;-22
2022/06/06 11:05:05;;;;;;;;;;;;;;;26.41;45.36;100712.06;5028701;28;20021;-22
2022/06/06 11:08:15;;;;;;;2.08;1.70;;;;;;;26.46;45.53;100695.44;5028298;28;20003;-22
2022/06/06 11:11:18;;;;;;;2.25;2.05;;;;;;;26.47;45.79;100699.91;5025340;28;20025;-22
2022/06/06 11:14:07;;;;;;;2.13;2.03;;;;;;;26.63;44.39;100702.28;5031076;28;20025;-22
2022/06/06 11:16:52;;;;;;;2.47;2.28;;;;;;;26.71;44.94;100685.47;5027183;28;20109;-22
2022/06/06 11:19:44;;;;;;;2.00;1.90;;;;;;;26.67;44.76;100698.34;5032143;28;20029;-22
2022/06/06 11:22:26;;;;;;;2.28;2.08;;;;;;;26.80;44.54;100692.00;4980456;28;20026;-22
2022/06/06 11:25:13;;;;;;;3.28;1.80;;;;;;;26.88;44.18;100673.31;5025735;28;20018;-21
2022/06/06 11:27:50;;;;;;;2.00;1.90;;;;;;;26.86;43.84;100678.84;5028760;28;20026;-22
2022/06/06 11:30:41;;;;;;;2.35;2.15;;;;;;;26.86;43.84;100675.28;5027049;28;20123;-22
2022/06/06 11:33:24;;;;;;;2.08;1.83;;;;;;;26.90;44.29;100684.88;5025980;28;20029;-22
2022/06/06 11:36:20;;;;;;;3.08;1.80;;;;;;;26.91;44.31;100670.38;5030096;28;20032;-22
2022/06/06 11:39:31;;;;;;;2.15;1.73;;;;;;;27.00;43.88;100661.56;5028443;28;20391;-22
2022/06/06 11:45:41;;;;;;;2.03;1.90;;;;;;;27.15;43.23;100650.50;5018565;28;20052;-22
2022/06/06 11:48:38;;;;;;;2.03;1.90;;;;;;;27.17;42.78;100653.09;5028873;28;20099;-22
2022/06/06 11:51:18;;;;;;;1.95;1.80;;;;;;;27.22;43.14;100646.31;5028047;28;20363;-22
2022/06/06 11:54:21;;;;;;;2.58;1.95;;;;;;;27.25;44.67;100637.94;5027723;28;20120;-22
2022/06/06 11:57:08;;;;;;;2.00;1.90;;;;;;;27.42;42.99;100646.53;5026096;28;20044;-22
2022/06/06 12:00:05;;;;;;;1.63;1.52;;;;;;;27.45;42.45;100640.00;5029523;28;20387;-22
2022/06/06 12:02:46;;;;;;;1.80;1.70;;;;;;;27.47;42.92;100648.88;5007444;28;20029;-22
2022/06/06 12:05:37;;;;;;;2.03;1.45;;;;;;;27.51;41.36;100644.94;5008940;28;20115;-22
2022/06/06 12:08:30;;;;;;;1.63;1.52;;;;;;;27.45;40.80;100634.59;5026978;28;20033;-22
2022/06/06 12:11:17;;;;;;;2.90;1.58;;;;;;;27.41;40.88;100640.25;5029769;28;20060;-22
2022/06/06 12:13:51;;;;;;;2.78;1.90;;;;;;;27.25;40.61;100643.34;5031873;28;20498;-22
2022/06/06 12:16:41;;;;;;;2.85;1.90;;;;;;;27.10;39.08;100647.28;5030917;28;20033;-22
2022/06/06 12:19:24;;;;;;;;;;;;;;;26.95;40.09;100650.22;5013481;28;20095;-22
2022/06/06 12:21:59;;;;;;;1.85;1.75;;;;;;;26.94;40.93;100647.63;4999470;28;19920;-22
2022/06/06 12:24:49;;;;;;;1.40;1.30;;;;;;;26.95;40.95;100654.75;5027199;28;20022;-22
2022/06/06 12:27:21;;;;;;;1.77;1.67;;;;;;;26.92;40.68;100650.44;5034296;28;20074;-22
2022/06/06 12:30:24;;;;;;;2.22;1.77;;;;;;;26.90;40.12;100647.00;5031906;28;20040;-22
2022/06/06 12:33:03;;;;;;;2.13;1.80;;;;;;;26.75;40.98;100641.81;5019743;28;20018;-22
2022/06/06 12:35:32;;;;;;;2.17;1.65;;;;;;;26.69;41.53;100649.53;5018389;28;20032;-22
2022/06/06 12:38:38;;;;;;;1.92;1.80;;;;;;;26.64;41.32;100649.94;5036895;28;20021;-22
2022/06/06 12:41:37;;;;;;;1.83;1.73;;;;;;;26.54;40.89;100651.63;5032271;28;20098;-22
2022/06/06 12:44:05;;;;;;;1.95;1.75;;;;;;;26.35;41.36;100650.31;5032480;28;20096;-22
2022/06/06 12:46:49;;;;;;;4.03;2.13;;;;;;;26.32;41.52;100650.56;5008730;28;20017;-22
2022/06/06 12:49:48;;;;;;;1.85;1.65;;;;;;;26.31;41.00;100659.66;5032659;28;20292;-22
2022/06/06 12:52:23;;;;;;;2.00;1.90;;;;;;;26.21;41.45;100659.47;5031975;28;21180;-22
2022/06/06 12:57:47;;;;;;;2.15;1.60;;;;;;;26.01;41.94;100657.28;5031363;28;20029;-22
2022/06/06 13:00:14;;;;;;;3.17;1.70;;;;;;;25.93;42.77;100665.09;5016983;28;20427;-22